Balguntay, China
Current Conditions -  °F | °C
As of 2:00 AM on Thursday 29 Jan 2015 (Local Time) from ZWWW Reporting Station
Light Snow Light Snow  
Wind Chill: -12°   Ceiling: Unl
Heat Index: -2°   Visibility: 1.2mi
Dew Point: -6°   Wind: 4mph
Humidity: 85%   Direction: 250°WSW
Pressure: 30.59"   Gusts: NA
Location:  42.67°N, 86.33°E
Report Text: ZWWW 281800Z 25002MPS 2000 -SN BR FEW012 M19/M21 Q1036 NOSIG
Loading
Personal Weather Stations






























Interactive Weather Map New forecast layout! Learn more

10-Day Weather Forecast

Advertisements
Track Severe Weather on mobile